createdAt,value
2022-09-20T00:04:55.804Z,100691.72
2022-09-20T00:09:58.292Z,100698.22
2022-09-20T00:15:00.788Z,100692.47
2022-09-20T00:20:05.166Z,100700.22
2022-09-20T00:25:09.145Z,100702.94
2022-09-20T00:30:13.018Z,100699.66
2022-09-20T00:35:17.596Z,100705.13
2022-09-20T00:40:24.510Z,100696.97
2022-09-20T00:45:28.556Z,100709.25
2022-09-20T00:50:38.031Z,100701.31
2022-09-20T00:55:46.494Z,100705.13
2022-09-20T01:00:51.047Z,100696.66
2022-09-20T01:05:55.866Z,100711.13
2022-09-20T01:10:58.522Z,100710.84
2022-09-20T01:16:02.940Z,100717.09
2022-09-20T01:21:08.076Z,100719.81
2022-09-20T01:26:52.570Z,100712.94
2022-09-20T01:32:01.009Z,100717.03
2022-09-20T01:37:11.647Z,100705.59
2022-09-20T01:42:15.622Z,100706.22
2022-09-20T01:47:30.912Z,100707.25
2022-09-20T01:52:54.822Z,100701.56
2022-09-20T01:58:33.358Z,100715.34
2022-09-20T02:03:58.405Z,100721.63
2022-09-20T02:09:31.530Z,100724.06
2022-09-20T02:14:46.762Z,100726.47
2022-09-20T02:20:06.795Z,100733.41
2022-09-20T02:25:21.607Z,100736.06
2022-09-20T02:30:30.011Z,100731.19
2022-09-20T02:35:56.229Z,100735.88
2022-09-20T02:41:35.029Z,100730.41
2022-09-20T02:46:46.543Z,100734.84
2022-09-20T02:51:53.493Z,100743.63
2022-09-20T02:57:04.716Z,100742.56
2022-09-20T03:02:13.099Z,100736.59
2022-09-20T03:07:23.939Z,100743.44
2022-09-20T03:12:37.041Z,100748.50
2022-09-20T03:17:50.851Z,100751.66
2022-09-20T03:23:02.077Z,100758.56
2022-09-20T03:28:24.728Z,100756.53
2022-09-20T03:33:37.944Z,100752.91
2022-09-20T03:38:53.357Z,100751.94
2022-09-20T03:44:19.087Z,100749.28
2022-09-20T03:49:55.087Z,100758.16
2022-09-20T03:55:33.595Z,100758.06
2022-09-20T04:00:56.904Z,100760.59
2022-09-20T04:06:14.839Z,100760.66
2022-09-20T04:11:26.975Z,100770.00
2022-09-20T04:16:38.779Z,100770.31
2022-09-20T04:21:48.211Z,100759.13
2022-09-20T04:26:59.547Z,100771.66
2022-09-20T04:32:12.929Z,100770.31
2022-09-20T04:37:27.764Z,100780.38
2022-09-20T04:43:18.426Z,100785.81
2022-09-20T04:48:54.556Z,100782.63
2022-09-20T04:54:39.877Z,100791.28
2022-09-20T04:59:55.691Z,100801.78
2022-09-20T05:05:25.807Z,100796.50
2022-09-20T05:10:57.888Z,100801.69
2022-09-20T05:16:07.157Z,100802.91
2022-09-20T05:21:20.963Z,100797.09
2022-09-20T05:26:38.909Z,100803.34
2022-09-20T05:31:50.810Z,100802.84
2022-09-20T05:37:00.442Z,100814.22
2022-09-20T05:42:16.042Z,100811.63
2022-09-20T05:47:25.865Z,100816.41
2022-09-20T05:52:44.128Z,100814.25
2022-09-20T05:58:01.239Z,100825.72
2022-09-20T06:03:17.429Z,100828.44
2022-09-20T06:08:34.714Z,100827.88
2022-09-20T06:14:00.363Z,100831.19
2022-09-20T06:19:12.772Z,100835.56
2022-09-20T06:24:25.717Z,100840.34
2022-09-20T06:29:33.182Z,100834.72
2022-09-20T06:34:37.327Z,100844.28
2022-09-20T06:40:04.037Z,100850.25
2022-09-20T06:45:07.245Z,100851.09
2022-09-20T06:50:16.315Z,100857.94
2022-09-20T06:55:28.464Z,100855.22
2022-09-20T07:00:31.683Z,100863.69
2022-09-20T07:05:36.268Z,100866.06
2022-09-20T07:10:38.792Z,100867.72
2022-09-20T07:15:41.336Z,100863.88
2022-09-20T07:20:45.305Z,100869.88
2022-09-20T07:25:47.950Z,100872.94
2022-09-20T07:30:50.737Z,100886.50
2022-09-20T07:35:55.896Z,100891.59
2022-09-20T07:40:59.732Z,100897.06
2022-09-20T07:46:02.330Z,100900.25
2022-09-20T07:51:09.537Z,100908.81
2022-09-20T07:56:14.327Z,100906.03
2022-09-20T08:01:17.031Z,100915.94
2022-09-20T08:06:21.411Z,100915.28
2022-09-20T08:11:28.502Z,100914.41
2022-09-20T08:16:32.726Z,100925.03
2022-09-20T08:21:38.066Z,100927.13
2022-09-20T08:26:40.796Z,100918.38
2022-09-20T08:31:43.740Z,100923.19
2022-09-20T08:36:51.751Z,100921.56
2022-09-20T08:42:00.525Z,100926.00
2022-09-20T08:47:09.827Z,100921.94
2022-09-20T08:52:18.961Z,100928.69
2022-09-20T08:57:21.836Z,100935.47
2022-09-20T09:02:24.454Z,100938.75
2022-09-20T09:07:29.077Z,100936.19
2022-09-20T09:12:36.747Z,100946.97
2022-09-20T09:17:39.170Z,100947.09
2022-09-20T09:22:45.779Z,100943.78
2022-09-20T09:27:57.019Z,100947.09
2022-09-20T09:33:18.749Z,100947.88
2022-09-20T09:38:26.040Z,100937.97
2022-09-20T09:43:32.512Z,100963.44
2022-09-20T09:48:37.217Z,100958.78
2022-09-20T09:53:43.575Z,100954.44
2022-09-20T09:59:02.532Z,100951.56
2022-09-20T10:04:14.930Z,100946.81
2022-09-20T10:09:28.408Z,100944.59
2022-09-20T10:14:45.586Z,100947.72
2022-09-20T10:20:01.982Z,100947.88
2022-09-20T10:25:17.160Z,100956.28
2022-09-20T10:30:22.038Z,100946.88
2022-09-20T10:35:30.925Z,100947.47
2022-09-20T10:40:57.565Z,100955.72
2022-09-20T10:46:31.288Z,100945.25
2022-09-20T10:51:45.633Z,100943.59
2022-09-20T10:56:56.355Z,100937.66
2022-09-20T11:02:14.676Z,100935.78
2022-09-20T11:07:20.440Z,100937.31
2022-09-20T11:12:29.697Z,100941.22
2022-09-20T11:17:36.945Z,100947.09
2022-09-20T11:22:44.947Z,100937.00
2022-09-20T11:27:54.733Z,100943.56
2022-09-20T11:33:02.998Z,100932.50
2022-09-20T11:38:14.178Z,100938.97
2022-09-20T11:43:20.029Z,100948.75
2022-09-20T11:48:26.884Z,100933.09
2022-09-20T11:53:43.000Z,100934.53
2022-09-20T11:58:49.208Z,100931.88
2022-09-20T12:04:14.164Z,100937.34
2022-09-20T12:09:26.389Z,100940.03
2022-09-20T12:14:32.307Z,100929.38
2022-09-20T12:19:40.259Z,100924.84
2022-09-20T12:24:45.489Z,100919.75
2022-09-20T12:30:17.539Z,100930.22
2022-09-20T12:35:59.917Z,100910.69
2022-09-20T12:41:07.817Z,100907.34
2022-09-20T12:46:21.910Z,100922.25
2022-09-20T12:51:59.231Z,100917.94
2022-09-20T12:57:19.225Z,100914.72
2022-09-20T13:02:57.495Z,100923.97
2022-09-20T13:08:03.463Z,100921.28
2022-09-20T13:13:17.040Z,100909.50
2022-09-20T13:18:22.128Z,100923.75
2022-09-20T13:23:27.983Z,100922.59
2022-09-20T13:28:38.394Z,100919.75
2022-09-20T13:33:43.246Z,100916.75
2022-09-20T13:38:48.300Z,100932.19
2022-09-20T13:43:52.056Z,100924.84
2022-09-20T13:49:17.541Z,100930.53
2022-09-20T13:54:27.207Z,100943.75
2022-09-20T13:59:34.559Z,100955.03
2022-09-20T14:04:40.462Z,100941.81
2022-09-20T14:09:43.716Z,100945.88
2022-09-20T14:14:47.529Z,100953.19
2022-09-20T14:19:54.520Z,100950.16
2022-09-20T14:25:01.338Z,100955.84
2022-09-20T14:30:07.366Z,100958.75
2022-09-20T14:35:17.657Z,100963.88
2022-09-20T14:40:23.865Z,100976.47
2022-09-20T14:45:32.568Z,100981.69
2022-09-20T14:50:39.255Z,100994.25
2022-09-20T14:55:58.979Z,100982.06
2022-09-20T15:01:05.948Z,100992.47
2022-09-20T15:06:14.643Z,100988.84
2022-09-20T15:11:17.829Z,100996.03
2022-09-20T15:16:22.365Z,100993.38
2022-09-20T15:21:28.854Z,101001.84
2022-09-20T15:26:34.545Z,101000.25
2022-09-20T15:31:37.339Z,100997.41
2022-09-20T15:36:42.730Z,101005.94
2022-09-20T15:41:46.073Z,100997.97
2022-09-20T15:46:50.751Z,100999.41
2022-09-20T15:51:54.668Z,100994.88
2022-09-20T15:56:58.421Z,101008.78
2022-09-20T16:02:02.302Z,101003.56
2022-09-20T16:07:09.559Z,101006.00
2022-09-20T16:12:12.115Z,101003.19
2022-09-20T16:17:14.694Z,101016.47
2022-09-20T16:22:19.622Z,101020.81
2022-09-20T16:27:22.300Z,101030.84
2022-09-20T16:32:24.797Z,101033.25
2022-09-20T16:37:32.751Z,101036.03
2022-09-20T16:42:35.288Z,101041.06
2022-09-20T16:47:37.883Z,101054.66
2022-09-20T16:52:41.982Z,101040.25
2022-09-20T16:57:44.429Z,101059.31
2022-09-20T17:02:47.976Z,101071.31
2022-09-20T17:07:51.875Z,101077.13
2022-09-20T17:12:58.022Z,101080.75
2022-09-20T17:18:00.552Z,101091.72
2022-09-20T17:23:07.961Z,101095.13
2022-09-20T17:28:10.564Z,101109.84
2022-09-20T17:33:13.223Z,101116.69
2022-09-20T17:38:17.520Z,101121.06
2022-09-20T17:43:19.980Z,101123.09
2022-09-20T17:48:24.322Z,101128.31
2022-09-20T17:53:28.122Z,101136.28
2022-09-20T17:58:31.310Z,101139.06
2022-09-20T18:03:38.114Z,101140.41
2022-09-20T18:08:42.675Z,101147.63
2022-09-20T18:13:45.875Z,101148.34
2022-09-20T18:18:49.676Z,101150.69
2022-09-20T18:23:54.183Z,101164.63
2022-09-20T18:28:58.022Z,101172.41
2022-09-20T18:34:01.203Z,101179.44
2022-09-20T18:39:06.072Z,101181.16
2022-09-20T18:44:09.050Z,101185.16
2022-09-20T18:49:15.190Z,101193.34
2022-09-20T18:54:19.765Z,101191.09
2022-09-20T18:59:24.129Z,101196.44
2022-09-20T19:04:35.433Z,101204.84
2022-09-20T19:09:47.463Z,101208.06
2022-09-20T19:15:05.847Z,101222.63
2022-09-20T19:20:19.700Z,101215.63
2022-09-20T19:25:29.615Z,101224.78
2022-09-20T19:30:32.927Z,101235.91
2022-09-20T19:35:39.427Z,101234.38
2022-09-20T19:40:59.563Z,101234.75
2022-09-20T19:46:13.435Z,101240.13
2022-09-20T19:51:17.071Z,101235.31
2022-09-20T19:56:25.674Z,101243.03
2022-09-20T20:01:29.023Z,101242.22
2022-09-20T20:06:36.272Z,101256.13
2022-09-20T20:11:48.720Z,101257.13
2022-09-20T20:17:01.603Z,101257.94
2022-09-20T20:22:12.694Z,101261.63
2022-09-20T20:27:16.711Z,101261.53
2022-09-20T20:32:19.461Z,101274.56
2022-09-20T20:37:24.314Z,101279.13
2022-09-20T20:42:30.804Z,101287.66
2022-09-20T20:47:34.385Z,101288.59
2022-09-20T20:52:37.235Z,101293.03
2022-09-20T20:57:41.298Z,101302.34
2022-09-20T21:02:45.057Z,101299.78
2022-09-20T21:07:51.608Z,101315.59
2022-09-20T21:12:56.323Z,101309.88
2022-09-20T21:17:59.176Z,101321.72
2022-09-20T21:23:01.803Z,101320.22
2022-09-20T21:28:05.877Z,101322.03
2022-09-20T21:33:08.574Z,101326.69
2022-09-20T21:38:11.464Z,101329.03
2022-09-20T21:43:15.578Z,101327.28
2022-09-20T21:48:18.755Z,101333.47
2022-09-20T21:53:21.361Z,101333.38
2022-09-20T21:58:25.780Z,101335.09
2022-09-20T22:03:33.424Z,101342.16
2022-09-20T22:08:36.978Z,101342.59
2022-09-20T22:13:44.959Z,101340.63
2022-09-20T22:18:48.314Z,101347.78
2022-09-20T22:23:52.866Z,101335.63
2022-09-20T22:28:56.860Z,101338.13
2022-09-20T22:34:02.061Z,101340.25
2022-09-20T22:39:07.322Z,101338.69
2022-09-20T22:44:12.372Z,101338.00
2022-09-20T22:49:14.815Z,101333.06
2022-09-20T22:54:17.530Z,101346.91
2022-09-20T22:59:21.880Z,101352.72
2022-09-20T23:04:24.563Z,101363.34
2022-09-20T23:09:29.637Z,101356.91
2022-09-20T23:14:33.665Z,101360.06
2022-09-20T23:19:36.361Z,101363.06
2022-09-20T23:24:39.129Z,101369.16
2022-09-20T23:29:42.870Z,101370.34
2022-09-20T23:34:45.319Z,101368.13
2022-09-20T23:39:47.757Z,101365.16
2022-09-20T23:44:51.925Z,101359.84
2022-09-20T23:49:54.626Z,101362.56
2022-09-20T23:54:57.328Z,101357.22
